createdAt,value
2024-05-09T00:00:55.559Z,66.82
2024-05-09T00:01:55.590Z,66.53
2024-05-09T00:02:55.631Z,66.53
2024-05-09T00:03:55.732Z,67.01
2024-05-09T00:04:55.726Z,66.92
2024-05-09T00:05:55.755Z,67.01
2024-05-09T00:06:55.681Z,67.30
2024-05-09T00:07:55.767Z,67.11
2024-05-09T00:08:55.750Z,66.72
2024-05-09T00:09:55.786Z,66.63
2024-05-09T00:10:55.917Z,66.44
2024-05-09T00:11:55.920Z,66.44
2024-05-09T00:12:55.882Z,65.77
2024-05-09T00:13:55.987Z,65.87
2024-05-09T00:14:55.938Z,66.72
2024-05-09T00:15:55.974Z,66.92
2024-05-09T00:16:56.025Z,66.92
2024-05-09T00:17:56.272Z,66.82
2024-05-09T00:18:56.144Z,67.49
2024-05-09T00:19:56.135Z,67.55
2024-05-09T00:20:56.242Z,67.68
2024-05-09T00:21:56.160Z,67.46
2024-05-09T00:22:56.202Z,68.03
2024-05-09T00:23:56.225Z,68.03
2024-05-09T00:24:56.252Z,68.22
2024-05-09T00:25:56.327Z,67.93
2024-05-09T00:26:56.314Z,68.60
2024-05-09T00:27:56.340Z,68.22
2024-05-09T00:28:56.501Z,68.60
2024-05-09T00:29:56.406Z,68.79
2024-05-09T00:30:56.436Z,68.60
2024-05-09T00:31:56.622Z,68.32
2024-05-09T00:32:56.751Z,69.37
2024-05-09T00:33:56.732Z,68.88
2024-05-09T00:34:56.582Z,69.27
2024-05-09T00:35:56.634Z,69.93
2024-05-09T00:36:56.619Z,69.74
2024-05-09T00:37:56.748Z,69.71
2024-05-09T00:38:56.686Z,70.00
2024-05-09T00:39:56.713Z,70.38
2024-05-09T00:40:56.790Z,70.28
2024-05-09T00:41:56.776Z,70.57
2024-05-09T00:42:56.807Z,70.57
2024-05-09T00:43:56.889Z,70.19
2024-05-09T00:44:56.883Z,70.38
2024-05-09T00:45:56.917Z,71.04
2024-05-09T00:46:56.970Z,71.04
2024-05-09T00:47:57.207Z,70.98
2024-05-09T00:48:57.095Z,70.47
2024-05-09T00:49:57.056Z,70.67
2024-05-09T00:50:57.173Z,70.86
2024-05-09T00:51:57.079Z,70.86
2024-05-09T00:52:57.230Z,71.52
2024-05-09T00:53:57.191Z,71.91
2024-05-09T00:54:57.177Z,71.23
2024-05-09T00:55:57.251Z,71.91
2024-05-09T00:56:57.236Z,71.91
2024-05-09T00:57:57.270Z,72.00
2024-05-09T00:58:57.370Z,72.09
2024-05-09T00:59:57.336Z,71.91
2024-05-09T01:00:57.406Z,72.09
2024-05-09T01:01:57.505Z,72.00
2024-05-09T01:02:57.482Z,71.91
2024-05-09T01:03:57.597Z,71.91
2024-05-09T01:04:57.543Z,71.81
2024-05-09T01:05:57.633Z,72.28
2024-05-09T01:06:57.553Z,72.28
2024-05-09T01:07:57.629Z,72.57
2024-05-09T01:08:57.603Z,72.28
2024-05-09T01:09:57.645Z,72.48
2024-05-09T01:10:57.803Z,72.38
2024-05-09T01:11:57.772Z,72.38
2024-05-09T01:12:57.734Z,72.28
2024-05-09T01:13:57.790Z,72.57
2024-05-09T01:14:57.789Z,72.76
2024-05-09T01:15:57.817Z,72.48
2024-05-09T01:16:57.930Z,72.57
2024-05-09T01:17:58.245Z,72.38
2024-05-09T01:18:57.960Z,72.57
2024-05-09T01:19:58.029Z,72.67
2024-05-09T01:20:58.091Z,72.38
2024-05-09T01:21:58.002Z,72.76
2024-05-09T01:22:58.071Z,73.24
2024-05-09T01:23:58.065Z,73.24
2024-05-09T01:24:58.094Z,72.67
2024-05-09T01:25:58.167Z,73.52
2024-05-09T01:26:58.156Z,73.14
2024-05-09T01:27:58.195Z,73.14
2024-05-09T01:28:58.267Z,73.14
2024-05-09T01:29:58.252Z,72.57
2024-05-09T01:30:58.280Z,73.24
2024-05-09T01:31:58.365Z,73.24
2024-05-09T01:32:58.458Z,73.05
2024-05-09T01:33:58.459Z,73.14
2024-05-09T01:34:58.430Z,73.62
2024-05-09T01:35:58.429Z,73.62
2024-05-09T01:36:58.468Z,73.62
2024-05-09T01:37:58.605Z,73.91
2024-05-09T01:38:58.516Z,73.72
2024-05-09T01:39:58.552Z,74.01
2024-05-09T01:40:58.635Z,73.62
2024-05-09T01:41:58.623Z,73.43
2024-05-09T01:42:58.637Z,73.43
2024-05-09T01:43:58.710Z,73.91
2024-05-09T01:44:58.704Z,73.24
2024-05-09T01:45:58.734Z,73.43
2024-05-09T01:46:58.775Z,73.33
2024-05-09T01:47:59.132Z,73.52
2024-05-09T01:48:58.910Z,73.43
2024-05-09T01:49:58.911Z,73.81
2024-05-09T01:50:58.930Z,73.33
2024-05-09T01:51:58.948Z,74.01
2024-05-09T01:52:58.973Z,74.48
2024-05-09T01:53:58.989Z,74.01
2024-05-09T01:55:00.784Z,74.38
2024-05-09T01:55:59.096Z,74.25
2024-05-09T01:56:59.077Z,74.25
2024-05-09T01:57:59.160Z,74.44
2024-05-09T01:58:59.175Z,74.44
2024-05-09T01:59:59.172Z,74.63
2024-05-09T02:00:59.213Z,74.54
2024-05-09T02:01:59.607Z,74.25
2024-05-09T02:02:59.358Z,74.16
2024-05-09T02:03:59.522Z,74.35
2024-05-09T02:04:59.367Z,74.06
2024-05-09T02:05:59.394Z,73.96
2024-05-09T02:06:59.384Z,74.44
2024-05-09T02:07:59.430Z,74.82
2024-05-09T02:08:59.445Z,74.92
2024-05-09T02:09:59.483Z,75.30
2024-05-09T02:10:59.638Z,75.11
2024-05-09T02:11:59.647Z,75.49
2024-05-09T02:12:59.560Z,75.40
2024-05-09T02:13:59.675Z,75.49
2024-05-09T02:14:59.626Z,75.49
2024-05-09T02:15:59.663Z,75.78
2024-05-09T02:16:59.710Z,75.78
2024-05-09T02:17:59.850Z,75.87
2024-05-09T02:18:59.842Z,76.06
2024-05-09T02:19:59.797Z,75.59
2024-05-09T02:20:59.909Z,76.06
2024-05-09T02:21:59.830Z,76.06
2024-05-09T02:22:59.893Z,75.87
2024-05-09T02:23:59.898Z,76.06
2024-05-09T02:24:59.932Z,76.03
2024-05-09T02:26:00.030Z,75.96
2024-05-09T02:27:00.003Z,75.96
2024-05-09T02:28:00.056Z,76.06
2024-05-09T02:29:00.167Z,76.12
2024-05-09T02:30:00.098Z,76.03
2024-05-09T02:31:00.113Z,76.40
2024-05-09T02:32:00.268Z,76.12
2024-05-09T02:33:00.400Z,76.12
2024-05-09T02:34:00.342Z,76.79
2024-05-09T02:35:00.343Z,76.88
2024-05-09T02:36:00.282Z,76.59
2024-05-09T02:37:00.298Z,76.50
2024-05-09T02:38:00.484Z,76.69
2024-05-09T02:39:00.464Z,76.69
2024-05-09T02:40:00.389Z,76.59
2024-05-09T02:41:00.467Z,77.17
2024-05-09T02:42:00.438Z,77.07
2024-05-09T02:43:00.472Z,77.07
2024-05-09T02:44:00.554Z,76.69
2024-05-09T02:45:00.539Z,76.69
2024-05-09T02:46:00.572Z,76.69
2024-05-09T02:47:00.650Z,76.69
2024-05-09T02:48:01.469Z,76.69
2024-05-09T02:49:00.751Z,76.79
2024-05-09T02:50:00.719Z,77.26
2024-05-09T02:51:00.816Z,76.88
2024-05-09T02:52:00.733Z,77.17
2024-05-09T02:53:00.862Z,77.36
2024-05-09T02:54:00.803Z,77.36
2024-05-09T02:55:00.830Z,77.55
2024-05-09T02:56:00.960Z,77.55
2024-05-09T02:57:00.888Z,76.98
2024-05-09T02:58:00.934Z,77.36
2024-05-09T02:59:00.986Z,77.55
2024-05-09T03:00:00.980Z,77.64
2024-05-09T03:01:01.044Z,77.45
2024-05-09T03:02:01.139Z,77.55
2024-05-09T03:03:01.324Z,76.98
2024-05-09T03:04:01.226Z,77.26
2024-05-09T03:05:01.195Z,78.12
2024-05-09T03:06:01.224Z,77.93
2024-05-09T03:07:01.201Z,78.22
2024-05-09T03:08:01.323Z,78.41
2024-05-09T03:09:01.264Z,78.03
2024-05-09T03:10:01.279Z,77.83
2024-05-09T03:11:01.425Z,77.74
2024-05-09T03:12:01.477Z,78.31
2024-05-09T03:13:01.370Z,78.03
2024-05-09T03:14:01.420Z,78.31
2024-05-09T03:15:01.429Z,78.41
2024-05-09T03:16:01.457Z,78.31
2024-05-09T03:17:01.547Z,78.03
2024-05-09T03:18:01.979Z,78.59
2024-05-09T03:19:01.657Z,78.59
2024-05-09T03:20:01.628Z,78.41
2024-05-09T03:21:01.725Z,78.59
2024-05-09T03:22:01.637Z,79.22
2024-05-09T03:23:01.750Z,79.22
2024-05-09T03:24:01.692Z,79.32
2024-05-09T03:25:01.724Z,79.13
2024-05-09T03:26:01.818Z,79.22
2024-05-09T03:27:01.787Z,79.70
2024-05-09T03:28:01.813Z,79.80
2024-05-09T03:29:01.885Z,79.80
2024-05-09T03:30:02.030Z,79.41
2024-05-09T03:31:01.909Z,79.32
2024-05-09T03:32:01.984Z,79.80
2024-05-09T03:33:02.117Z,79.70
2024-05-09T03:34:02.255Z,79.41
2024-05-09T03:35:02.116Z,79.60
2024-05-09T03:36:02.054Z,79.89
2024-05-09T03:37:02.086Z,79.99
2024-05-09T03:38:02.191Z,79.70
2024-05-09T03:39:02.141Z,80.18
2024-05-09T03:40:02.880Z,79.70
2024-05-09T03:41:02.244Z,79.89
2024-05-09T03:42:02.238Z,79.60
2024-05-09T03:43:02.272Z,80.18
2024-05-09T03:44:02.331Z,79.99
2024-05-09T03:45:02.351Z,80.27
2024-05-09T03:46:02.349Z,79.80
2024-05-09T03:47:02.394Z,80.18
2024-05-09T03:48:02.697Z,80.46
2024-05-09T03:49:02.531Z,80.65
2024-05-09T03:50:04.381Z,80.46
2024-05-09T03:51:02.630Z,80.75
2024-05-09T03:52:02.528Z,79.89
2024-05-09T03:53:02.644Z,80.18
2024-05-09T03:54:02.604Z,80.27
2024-05-09T03:55:02.615Z,79.99
2024-05-09T03:56:02.690Z,80.27
2024-05-09T03:57:02.683Z,80.18
2024-05-09T03:58:02.718Z,79.60
2024-05-09T03:59:02.818Z,79.70
2024-05-09T04:00:03.983Z,79.89
2024-05-09T04:01:02.832Z,79.89
2024-05-09T04:02:02.916Z,79.89
2024-05-09T04:03:03.213Z,79.80
2024-05-09T04:04:02.890Z,79.99
2024-05-09T04:05:02.954Z,80.18
2024-05-09T04:06:02.958Z,79.60
2024-05-09T04:07:02.982Z,79.89
2024-05-09T04:08:03.069Z,80.18
2024-05-09T04:09:03.030Z,80.27
2024-05-09T04:10:04.088Z,80.75
2024-05-09T04:11:03.188Z,80.46
2024-05-09T04:12:03.242Z,80.18
2024-05-09T04:13:03.715Z,80.18
2024-05-09T04:14:03.211Z,81.03
2024-05-09T04:15:03.235Z,80.36
2024-05-09T04:16:03.245Z,80.46
2024-05-09T04:17:03.303Z,81.03
2024-05-09T04:18:03.459Z,80.94
2024-05-09T04:19:03.539Z,80.94
2024-05-09T04:20:03.432Z,80.36
2024-05-09T04:21:03.538Z,81.03
2024-05-09T04:22:03.416Z,81.03
2024-05-09T04:23:03.511Z,80.36
2024-05-09T04:24:03.487Z,80.46
2024-05-09T04:25:03.514Z,80.55
2024-05-09T04:26:03.576Z,80.27
2024-05-09T04:27:03.574Z,80.08
2024-05-09T04:28:03.604Z,80.18
2024-05-09T04:29:03.636Z,80.18
2024-05-09T04:30:04.750Z,79.60
2024-05-09T04:31:03.682Z,79.99
2024-05-09T04:32:03.800Z,79.93
2024-05-09T04:33:03.886Z,79.41
2024-05-09T04:34:04.076Z,79.46
2024-05-09T04:35:03.896Z,79.74
2024-05-09T04:36:03.834Z,79.74
2024-05-09T04:37:03.868Z,79.64
2024-05-09T04:38:03.929Z,79.83
2024-05-09T04:39:03.921Z,79.27
2024-05-09T04:40:06.917Z,79.36
2024-05-09T04:41:04.030Z,79.07
2024-05-09T04:42:04.009Z,79.27
2024-05-09T04:43:04.092Z,78.98
2024-05-09T04:44:04.082Z,79.07
2024-05-09T04:45:04.095Z,78.88
2024-05-09T04:46:04.139Z,79.07
2024-05-09T04:47:04.189Z,78.88
2024-05-09T04:48:04.441Z,78.69
2024-05-09T04:49:04.283Z,78.69
2024-05-09T04:50:05.437Z,78.59
2024-05-09T04:51:04.507Z,78.59
2024-05-09T04:52:04.335Z,78.78
2024-05-09T04:53:04.643Z,78.22
2024-05-09T04:54:04.531Z,78.69
2024-05-09T04:55:04.390Z,78.50
2024-05-09T04:56:04.477Z,78.69
2024-05-09T04:57:04.451Z,78.59
2024-05-09T04:58:04.489Z,78.59
2024-05-09T04:59:04.597Z,78.03
2024-05-09T05:00:09.477Z,78.22
2024-05-09T05:01:04.608Z,78.12
2024-05-09T05:02:04.779Z,77.93
2024-05-09T05:03:04.920Z,78.12
2024-05-09T05:04:04.776Z,77.93
2024-05-09T05:05:04.780Z,78.12
2024-05-09T05:06:04.757Z,77.93
2024-05-09T05:07:04.750Z,77.49
2024-05-09T05:08:04.893Z,77.69
2024-05-09T05:09:04.818Z,77.49
2024-05-09T05:10:05.911Z,76.92
2024-05-09T05:11:04.943Z,77.87
2024-05-09T05:12:04.984Z,77.59
2024-05-09T05:13:04.927Z,77.78
2024-05-09T05:14:05.015Z,77.49
2024-05-09T05:15:04.995Z,77.30
2024-05-09T05:16:05.018Z,77.30
2024-05-09T05:17:05.095Z,77.40
2024-05-09T05:18:05.241Z,77.40
2024-05-09T05:19:07.560Z,77.59
2024-05-09T05:20:05.963Z,77.30
2024-05-09T05:21:05.213Z,77.01
2024-05-09T05:22:05.199Z,77.30
2024-05-09T05:23:05.295Z,77.59
2024-05-09T05:24:05.258Z,77.69
2024-05-09T05:25:05.296Z,77.69
2024-05-09T05:26:05.361Z,77.20
2024-05-09T05:27:05.345Z,77.11
2024-05-09T05:28:05.378Z,77.20
2024-05-09T05:29:05.454Z,76.73
2024-05-09T05:30:07.516Z,76.73
2024-05-09T05:31:05.464Z,76.86
2024-05-09T05:32:05.626Z,76.20
2024-05-09T05:33:05.703Z,76.64
2024-05-09T05:34:05.602Z,76.29
2024-05-09T05:35:05.611Z,76.29
2024-05-09T05:36:05.621Z,76.20
2024-05-09T05:37:05.675Z,76.29
2024-05-09T05:38:05.693Z,76.01
2024-05-09T05:39:05.706Z,76.25
2024-05-09T05:40:05.837Z,76.39
2024-05-09T05:41:05.812Z,76.29
2024-05-09T05:42:05.798Z,76.29
2024-05-09T05:43:05.860Z,75.81
2024-05-09T05:44:05.907Z,76.01
2024-05-09T05:45:08.355Z,76.10
2024-05-09T05:46:05.918Z,75.91
2024-05-09T05:47:06.024Z,76.01
2024-05-09T05:48:06.794Z,75.53
2024-05-09T05:49:06.088Z,75.34
2024-05-09T05:50:14.486Z,75.24
2024-05-09T05:51:06.141Z,74.96
2024-05-09T05:52:06.101Z,74.96
2024-05-09T05:53:06.325Z,75.05
2024-05-09T05:54:06.177Z,74.67
2024-05-09T05:55:06.204Z,74.52
2024-05-09T05:56:06.340Z,74.23
2024-05-09T05:57:06.248Z,73.47
2024-05-09T05:58:06.286Z,74.04
2024-05-09T05:59:06.369Z,73.28
2024-05-09T06:00:09.556Z,73.85
2024-05-09T06:01:06.426Z,73.66
2024-05-09T06:02:06.436Z,73.56
2024-05-09T06:03:06.679Z,73.56
2024-05-09T06:04:06.513Z,73.47
2024-05-09T06:05:06.588Z,73.18
2024-05-09T06:06:06.611Z,72.99
2024-05-09T06:07:06.576Z,72.99
2024-05-09T06:08:06.621Z,73.08
2024-05-09T06:09:06.615Z,72.99
2024-05-09T06:10:11.443Z,72.51
2024-05-09T06:11:06.814Z,72.45
2024-05-09T06:12:06.819Z,72.83
2024-05-09T06:13:06.768Z,72.45
2024-05-09T06:14:06.839Z,72.64
2024-05-09T06:15:06.806Z,72.83
2024-05-09T06:16:06.838Z,72.45
2024-05-09T06:17:06.952Z,72.83
2024-05-09T06:18:07.100Z,72.36
2024-05-09T06:19:06.978Z,72.07
2024-05-09T06:20:13.448Z,71.31
2024-05-09T06:21:07.019Z,71.41
2024-05-09T06:22:07.019Z,71.15
2024-05-09T06:23:07.247Z,70.92
2024-05-09T06:24:07.074Z,70.83
2024-05-09T06:25:07.106Z,70.64
2024-05-09T06:26:07.189Z,70.83
2024-05-09T06:27:07.228Z,70.87
2024-05-09T06:28:07.198Z,70.58
2024-05-09T06:29:07.240Z,70.58
2024-05-09T06:30:09.955Z,71.15
2024-05-09T06:31:07.289Z,70.48
2024-05-09T06:32:07.411Z,70.67
2024-05-09T06:33:07.996Z,70.20
2024-05-09T06:34:07.549Z,70.10
2024-05-09T06:35:07.444Z,69.72
2024-05-09T06:36:07.444Z,69.62
2024-05-09T06:37:07.510Z,69.82
2024-05-09T06:38:07.518Z,69.85
2024-05-09T06:39:07.553Z,70.14
2024-05-09T06:40:09.882Z,69.66
2024-05-09T06:41:07.645Z,69.56
2024-05-09T06:42:07.639Z,68.99
2024-05-09T06:43:07.664Z,68.90
2024-05-09T06:44:07.742Z,69.37
2024-05-09T06:45:07.728Z,68.90
2024-05-09T06:46:07.759Z,68.80
2024-05-09T06:47:08.024Z,68.61
2024-05-09T06:48:08.131Z,68.61
2024-05-09T06:49:08.051Z,68.04
2024-05-09T06:50:13.366Z,67.69
2024-05-09T06:51:07.971Z,67.36
2024-05-09T06:52:07.942Z,67.49
2024-05-09T06:53:08.163Z,67.46
2024-05-09T06:54:08.012Z,67.27
2024-05-09T06:55:08.038Z,67.30
2024-05-09T06:56:08.068Z,68.16
2024-05-09T06:57:08.101Z,67.97
2024-05-09T06:58:08.155Z,67.11
2024-05-09T06:59:08.210Z,67.78
2024-05-09T07:00:12.629Z,67.49
2024-05-09T07:01:08.301Z,67.11
2024-05-09T07:02:08.318Z,67.59
2024-05-09T07:03:08.533Z,66.54
2024-05-09T07:04:08.450Z,66.19
2024-05-09T07:05:08.482Z,65.90
2024-05-09T07:06:08.463Z,65.90
2024-05-09T07:07:08.417Z,65.81
2024-05-09T07:08:08.514Z,65.90
2024-05-09T07:09:08.481Z,65.52
2024-05-09T07:10:14.817Z,65.61
2024-05-09T07:11:08.627Z,65.52
2024-05-09T07:12:08.771Z,65.45
2024-05-09T07:13:08.613Z,65.45
2024-05-09T07:14:08.775Z,65.17
2024-05-09T07:15:08.688Z,64.79
2024-05-09T07:16:08.706Z,64.50
2024-05-09T07:17:08.896Z,64.12
2024-05-09T07:18:08.912Z,64.02
2024-05-09T07:19:08.976Z,63.73
2024-05-09T07:20:11.834Z,63.19
2024-05-09T07:21:08.952Z,63.00
2024-05-09T07:22:08.916Z,62.33
2024-05-09T07:23:09.010Z,62.04
2024-05-09T07:24:08.964Z,61.94
2024-05-09T07:25:08.995Z,62.33
2024-05-09T07:26:09.075Z,62.23
2024-05-09T07:27:09.359Z,61.94
2024-05-09T07:28:09.093Z,61.69
2024-05-09T07:29:09.192Z,61.28
2024-05-09T07:30:11.568Z,61.21
2024-05-09T07:31:09.191Z,61.11
2024-05-09T07:32:09.267Z,60.83
2024-05-09T07:33:09.438Z,60.54
2024-05-09T07:34:09.310Z,59.87
2024-05-09T07:35:09.356Z,59.90
2024-05-09T07:36:09.350Z,59.71
2024-05-09T07:37:09.386Z,59.90
2024-05-09T07:38:09.470Z,59.71
2024-05-09T07:39:09.466Z,59.04
2024-05-09T07:40:11.921Z,58.75
2024-05-09T07:41:09.571Z,58.75
2024-05-09T07:42:09.553Z,58.56
2024-05-09T07:43:09.577Z,58.59
2024-05-09T07:44:09.620Z,57.92
2024-05-09T07:45:24.167Z,57.92
2024-05-09T07:47:13.882Z,57.82
2024-05-09T07:48:14.792Z,57.43
2024-05-09T07:50:53.471Z,57.24
2024-05-09T07:53:22.153Z,56.60
2024-05-09T07:53:36.975Z,56.51
2024-05-09T07:54:10.193Z,55.93
2024-05-09T07:55:10.099Z,55.45
2024-05-09T07:56:11.524Z,55.83
2024-05-09T07:57:10.104Z,56.41
2024-05-09T07:58:10.128Z,55.74
2024-05-09T07:59:10.106Z,55.77
2024-05-09T08:00:14.250Z,55.38
2024-05-09T08:01:10.228Z,55.86
2024-05-09T08:02:10.389Z,55.38
2024-05-09T08:03:10.281Z,54.33
2024-05-09T08:04:10.337Z,54.33
2024-05-09T08:05:10.463Z,53.85
2024-05-09T08:06:10.339Z,53.85
2024-05-09T08:07:10.524Z,53.78
2024-05-09T08:08:10.406Z,53.78
2024-05-09T08:09:16.689Z,53.87
2024-05-09T08:10:12.912Z,53.58
2024-05-09T08:11:10.548Z,53.49
2024-05-09T08:12:10.540Z,53.58
2024-05-09T08:13:10.722Z,52.84
2024-05-09T08:14:10.613Z,52.75
2024-05-09T08:15:10.640Z,52.84
2024-05-09T08:16:10.713Z,51.98
2024-05-09T08:17:10.785Z,51.98
2024-05-09T08:18:10.963Z,51.50
2024-05-09T08:19:10.843Z,52.17
2024-05-09T08:21:10.861Z,51.88
2024-05-09T08:22:10.890Z,51.43
2024-05-09T08:23:10.949Z,51.53
2024-05-09T08:24:10.953Z,51.14
2024-05-09T08:25:13.437Z,50.95
2024-05-09T08:26:11.018Z,50.97
2024-05-09T08:27:11.049Z,51.55
2024-05-09T08:28:11.144Z,50.87
2024-05-09T08:29:11.118Z,51.26
2024-05-09T08:30:18.950Z,50.87
2024-05-09T08:31:11.261Z,49.43
2024-05-09T08:32:11.296Z,49.91
2024-05-09T08:33:11.288Z,48.66
2024-05-09T08:34:11.619Z,48.47
2024-05-09T08:35:11.323Z,48.59
2024-05-09T08:36:11.358Z,48.30
2024-05-09T08:37:16.158Z,47.82
2024-05-09T08:38:11.514Z,46.95
2024-05-09T08:39:11.459Z,46.57
2024-05-09T08:40:23.424Z,46.19
2024-05-09T08:41:11.544Z,48.02
2024-05-09T08:42:11.563Z,47.36
2024-05-09T08:43:12.870Z,46.78
2024-05-09T08:44:11.636Z,47.08
2024-05-09T08:45:11.708Z,46.33
2024-05-09T08:46:11.758Z,44.89
2024-05-09T08:47:11.752Z,45.75
2024-05-09T08:48:11.987Z,45.44
2024-05-09T08:49:12.024Z,45.36
2024-05-09T08:50:24.063Z,45.75
2024-05-09T08:51:11.894Z,46.52
2024-05-09T08:52:11.986Z,45.27
2024-05-09T08:53:11.963Z,45.36
2024-05-09T08:54:11.984Z,45.29
2024-05-09T08:55:12.041Z,45.48
2024-05-09T08:56:12.305Z,43.27
2024-05-09T08:57:12.101Z,43.17
2024-05-09T08:58:12.341Z,44.13
2024-05-09T08:59:12.159Z,42.49
2024-05-09T09:00:15.190Z,41.63
2024-05-09T09:01:12.388Z,41.17
2024-05-09T09:02:12.498Z,39.89
2024-05-09T09:03:12.446Z,40.66
2024-05-09T09:04:12.415Z,41.53
2024-05-09T09:05:12.484Z,42.49
2024-05-09T09:06:12.548Z,44.06
2024-05-09T09:07:12.513Z,42.90
2024-05-09T09:08:12.491Z,42.90
2024-05-09T09:09:12.535Z,40.97
2024-05-09T09:10:17.840Z,39.45
2024-05-09T09:11:12.658Z,38.97
2024-05-09T09:12:12.630Z,38.46
2024-05-09T09:13:12.876Z,39.53
2024-05-09T09:14:12.691Z,39.91
2024-05-09T09:15:12.735Z,39.41
2024-05-09T09:16:12.963Z,39.79
2024-05-09T09:17:12.826Z,40.37
2024-05-09T09:18:12.880Z,40.69
2024-05-09T09:19:13.121Z,40.78
2024-05-09T09:20:16.599Z,40.51
2024-05-09T09:21:12.943Z,40.32
2024-05-09T09:22:13.054Z,40.22
2024-05-09T09:23:13.030Z,40.72
2024-05-09T09:24:13.048Z,39.76
2024-05-09T09:25:13.107Z,40.24
2024-05-09T09:26:13.130Z,39.95
2024-05-09T09:27:13.161Z,38.43
2024-05-09T09:28:13.343Z,38.91
2024-05-09T09:29:13.228Z,39.78
2024-05-09T09:30:22.830Z,39.01
2024-05-09T09:31:13.393Z,38.16
2024-05-09T09:32:13.335Z,38.35
2024-05-09T09:33:13.604Z,38.35
2024-05-09T09:34:13.507Z,37.96
2024-05-09T09:35:13.455Z,37.19
2024-05-09T09:36:13.519Z,36.61
2024-05-09T09:37:13.639Z,35.45
2024-05-09T09:38:13.555Z,36.52
2024-05-09T09:39:13.587Z,36.82
2024-05-09T09:40:15.588Z,37.50
2024-05-09T09:41:13.717Z,37.40
2024-05-09T09:42:13.698Z,37.30
2024-05-09T09:43:14.003Z,37.40
2024-05-09T09:44:13.772Z,37.13
2024-05-09T09:45:13.826Z,36.74
2024-05-09T09:46:13.882Z,36.55
2024-05-09T09:47:13.921Z,36.07
2024-05-09T09:48:13.973Z,35.49
2024-05-09T09:49:14.041Z,34.91
2024-05-09T09:50:17.026Z,35.10
2024-05-09T09:51:14.067Z,34.73
2024-05-09T09:52:14.146Z,35.02
2024-05-09T09:53:14.133Z,34.73
2024-05-09T09:54:14.141Z,35.21
2024-05-09T09:55:14.248Z,35.89
2024-05-09T09:56:14.244Z,34.83
2024-05-09T09:57:14.248Z,33.95
2024-05-09T09:58:14.771Z,33.95
2024-05-09T09:59:14.320Z,33.95
2024-05-09T10:00:20.730Z,33.37
2024-05-09T10:01:14.465Z,33.76
2024-05-09T10:02:14.648Z,33.67
2024-05-09T10:03:14.523Z,33.18
2024-05-09T10:04:14.597Z,32.99
2024-05-09T10:05:14.715Z,32.02
2024-05-09T10:06:14.581Z,32.51
2024-05-09T10:07:14.749Z,32.51
2024-05-09T10:08:14.654Z,32.79
2024-05-09T10:09:14.693Z,32.12
2024-05-09T10:10:19.870Z,31.93
2024-05-09T10:11:14.819Z,32.51
2024-05-09T10:12:14.855Z,32.60
2024-05-09T10:13:14.882Z,32.51
2024-05-09T10:14:14.878Z,31.73
2024-05-09T10:15:14.916Z,32.14
2024-05-09T10:16:15.041Z,31.65
2024-05-09T10:17:15.015Z,31.74
2024-05-09T10:18:15.470Z,31.84
2024-05-09T10:19:15.134Z,31.46
2024-05-09T10:20:21.801Z,30.86
2024-05-09T10:21:15.139Z,31.44
2024-05-09T10:22:15.297Z,32.12
2024-05-09T10:23:15.218Z,32.60
2024-05-09T10:24:15.256Z,33.09
2024-05-09T10:25:15.347Z,30.76
2024-05-09T10:26:15.334Z,30.75
2024-05-09T10:27:15.380Z,30.15
2024-05-09T10:28:15.419Z,31.31
2024-05-09T10:29:15.442Z,31.62
2024-05-09T10:30:21.655Z,30.90
2024-05-09T10:31:15.791Z,32.24
2024-05-09T10:32:15.573Z,33.12
2024-05-09T10:33:15.654Z,32.65
2024-05-09T10:34:15.709Z,32.73
2024-05-09T10:35:15.660Z,32.44
2024-05-09T10:36:15.698Z,32.92
2024-05-09T10:37:15.789Z,33.89
2024-05-09T10:38:15.773Z,33.33
2024-05-09T10:39:15.808Z,33.33
2024-05-09T10:40:23.342Z,33.44
2024-05-09T10:41:16.076Z,32.29
2024-05-09T10:42:15.928Z,33.94
2024-05-09T10:43:16.200Z,31.31
2024-05-09T10:44:16.079Z,31.30
2024-05-09T10:45:16.151Z,32.56
2024-05-09T10:46:16.488Z,33.44
2024-05-09T10:47:16.117Z,33.63
2024-05-09T10:48:16.308Z,33.26
2024-05-09T10:49:16.429Z,32.97
2024-05-09T10:50:22.584Z,32.21
2024-05-09T10:51:16.252Z,31.54
2024-05-09T10:52:16.448Z,31.26
2024-05-09T10:53:16.338Z,31.07
2024-05-09T10:54:16.365Z,31.47
2024-05-09T10:55:16.426Z,31.09
2024-05-09T10:56:16.592Z,31.37
2024-05-09T10:57:16.473Z,31.86
2024-05-09T10:58:16.579Z,31.18
2024-05-09T10:59:16.607Z,30.23
2024-05-09T11:00:26.998Z,30.13
2024-05-09T11:01:16.771Z,28.97
2024-05-09T11:02:16.806Z,29.36
2024-05-09T11:03:16.793Z,28.98
2024-05-09T11:04:16.982Z,28.79
2024-05-09T11:05:16.860Z,28.89
2024-05-09T11:06:16.827Z,29.27
2024-05-09T11:07:16.891Z,29.28
2024-05-09T11:08:16.888Z,29.38
2024-05-09T11:09:16.917Z,29.10
2024-05-09T11:10:24.439Z,28.33
2024-05-09T11:11:17.134Z,27.07
2024-05-09T11:12:17.036Z,26.78
2024-05-09T11:13:17.099Z,26.20
2024-05-09T11:14:17.107Z,27.08
2024-05-09T11:15:17.160Z,26.01
2024-05-09T11:16:17.621Z,25.73
2024-05-09T11:17:17.247Z,25.24
2024-05-09T11:18:17.367Z,25.34
2024-05-09T11:19:17.522Z,25.82
2024-05-09T11:20:26.407Z,26.01
2024-05-09T11:21:17.379Z,25.73
2024-05-09T11:22:17.461Z,26.51
2024-05-09T11:23:17.446Z,26.60
2024-05-09T11:24:17.483Z,26.90
2024-05-09T11:25:17.592Z,26.61
2024-05-09T11:26:17.559Z,26.60
2024-05-09T11:27:17.612Z,27.18
2024-05-09T11:28:17.810Z,26.98
2024-05-09T11:29:19.491Z,27.08
2024-05-09T11:30:24.305Z,27.08
2024-05-09T11:31:18.084Z,26.50
2024-05-09T11:32:17.811Z,26.40
2024-05-09T11:33:17.852Z,26.70
2024-05-09T11:34:17.916Z,26.70
2024-05-09T11:35:18.051Z,26.31
2024-05-09T11:36:17.952Z,26.31
2024-05-09T11:37:18.095Z,26.01
2024-05-09T11:38:18.042Z,26.01
2024-05-09T11:39:18.068Z,26.39
2024-05-09T11:40:25.237Z,25.90
2024-05-09T11:41:18.158Z,26.79
2024-05-09T11:42:18.182Z,26.40
2024-05-09T11:43:18.361Z,25.73
2024-05-09T11:44:18.258Z,25.63
2024-05-09T11:45:18.331Z,25.63
2024-05-09T11:46:18.450Z,25.34
2024-05-09T11:47:18.406Z,25.73
2024-05-09T11:48:18.466Z,26.03
2024-05-09T11:49:18.552Z,25.82
2024-05-09T11:50:26.894Z,25.93
2024-05-09T11:51:18.528Z,25.84
2024-05-09T11:52:18.577Z,25.43
2024-05-09T11:53:18.601Z,25.54
2024-05-09T11:54:18.636Z,25.35
2024-05-09T11:55:18.879Z,24.96
2024-05-09T11:56:18.713Z,25.15
2024-05-09T11:57:18.760Z,25.15
2024-05-09T11:58:19.367Z,24.96
2024-05-09T11:59:18.859Z,24.96
2024-05-09T12:00:28.950Z,24.78
2024-05-09T12:01:18.985Z,24.88
2024-05-09T12:02:19.121Z,24.78
2024-05-09T12:03:19.082Z,24.29
2024-05-09T12:04:19.279Z,25.07
2024-05-09T12:05:19.296Z,24.68
2024-05-09T12:06:19.111Z,23.80
2024-05-09T12:07:19.259Z,23.99
2024-05-09T12:08:19.190Z,24.08
2024-05-09T12:09:19.215Z,24.67
2024-05-09T12:10:22.498Z,24.77
2024-05-09T12:11:19.399Z,24.87
2024-05-09T12:12:19.336Z,25.16
2024-05-09T12:13:19.540Z,24.88
2024-05-09T12:14:19.414Z,25.16
2024-05-09T12:15:19.461Z,25.16
2024-05-09T12:16:19.737Z,24.78
2024-05-09T12:17:19.573Z,25.07
2024-05-09T12:18:19.605Z,25.16
2024-05-09T12:19:19.640Z,25.75
2024-05-09T12:20:28.351Z,25.36
2024-05-09T12:21:19.681Z,24.97
2024-05-09T12:22:19.792Z,25.26
2024-05-09T12:23:19.761Z,25.18
2024-05-09T12:24:19.792Z,25.18
2024-05-09T12:25:19.873Z,24.89
2024-05-09T12:26:19.877Z,25.18
2024-05-09T12:27:19.914Z,24.30
2024-05-09T12:28:20.151Z,24.11
2024-05-09T12:29:19.995Z,24.79
2024-05-09T12:30:32.218Z,24.69
2024-05-09T12:31:20.111Z,24.98
2024-05-09T12:32:20.181Z,24.69
2024-05-09T12:33:20.276Z,24.21
2024-05-09T12:34:20.243Z,24.30
2024-05-09T12:35:20.224Z,24.11
2024-05-09T12:36:20.267Z,24.78
2024-05-09T12:37:20.389Z,24.98
2024-05-09T12:38:20.348Z,24.88
2024-05-09T12:39:20.402Z,25.26
2024-05-09T12:40:30.666Z,25.75
2024-05-09T12:41:20.475Z,25.16
2024-05-09T12:42:27.157Z,25.26
2024-05-09T12:43:20.669Z,24.88
2024-05-09T12:44:20.578Z,24.88
2024-05-09T12:45:20.617Z,24.97
2024-05-09T12:46:20.758Z,25.37
2024-05-09T12:47:20.753Z,25.18
2024-05-09T12:48:20.812Z,24.89
2024-05-09T12:49:21.110Z,24.89
2024-05-09T12:50:29.167Z,24.98
2024-05-09T12:51:20.857Z,25.08
2024-05-09T12:52:20.921Z,25.26
2024-05-09T12:53:20.936Z,24.97
2024-05-09T12:54:20.982Z,25.36
2024-05-09T12:55:21.026Z,25.65
2024-05-09T12:56:21.064Z,25.46
2024-05-09T12:57:21.086Z,25.76